Belgica — ORGQ — position and weather

sailwx.info

Track history (hours):
 
Tides and Currents Weather Stations Pressure Air Temp Water Temp Dewpoint Dewpoint Depression Visibility Wind Speed Wind Dir Waves Ship Positions

Oceanographic research ship Belgica (Belgium)

Detailed information on ship capabilities available from University of Delaware's Ocean Information Center.

Last reported at 2018-Feb-23 08:13 UTC. Time now 2018-Feb-25 23:42 UTC.
Position N 51°20' E 003°12'.

Length 51 m; draft 4.7 m.

MMSI: 205218000.

Date/timePositionNaut miles runAvg speedWind from/ knotsBaromVisibWave heightAir tempDewpointWater temp
2018-Feb-23 08:13N 51°20' E 003°12'0 0.7
2018-Feb-23 08:00N 51°20' E 003°12'3 5.0
2018-Feb-23 07:30N 51°22' E 003°10'3 6.2
2018-Feb-23 07:00N 51°21' E 003°05'5 9.2
2018-Feb-23 06:30N 51°20' E 002°58'4 8.4
2018-Feb-23 06:00N 51°20' E 002°51'5 8.9
2018-Feb-23 05:27N 51°21' E 002°44'4 9.4
2018-Feb-23 05:00N 51°22' E 002°37'5 9.2
2018-Feb-23 04:29N 51°22' E 002°29'4 9.0
2018-Feb-23 04:00N 51°20' E 002°23'4 8.5
2018-Feb-23 03:30N 51°18' E 002°17'4 7.8
2018-Feb-23 03:00N 51°16' E 002°12'4 7.4
2018-Feb-23 02:30N 51°13' E 002°08'3 7.1
2018-Feb-23 02:00N 51°11' E 002°03'3 6.4
2018-Feb-23 01:31N 51°10' E 001°58'3 5.8
2018-Feb-23 01:00N 51°09' E 001°54'2 4.9
2018-Feb-23 00:31N 51°07' E 001°51'2 4.9
2018-Feb-23 00:00N 51°06' E 001°47'2 4.5
2018-Feb-22 23:30N 51°05' E 001°44'2 4.4
2018-Feb-22 23:00N 51°04' E 001°41'2 4.6
2018-Feb-22 22:30N 51°02' E 001°39'2 3.9
2018-Feb-22 22:00N 51°01' E 001°37'2 3.5
2018-Feb-22 21:30N 50°60' E 001°34'3 5.3
2018-Feb-22 20:59N 50°58' E 001°31'3 5.5
2018-Feb-22 20:30N 50°57' E 001°28'3 5.7
2018-Feb-22 20:00N 50°54' E 001°25'3 5.8
2018-Feb-22 19:30N 50°52' E 001°22'3 5.5
2018-Feb-22 19:00N 50°50' E 001°20'7 6.7
2018-Feb-22 17:52N 50°51' E 001°08'5 7.1
2018-Feb-22 17:14N 50°52' E 001°01'3 9.3
2018-Feb-22 16:55N 50°51' E 000°57'4 9.3
2018-Feb-22 16:30N 50°49' E 000°52'3 6.7
2018-Feb-22 16:01N 50°47' E 000°48'2 4.3
2018-Feb-22 15:31N 50°45' E 000°45'1 2.1
2018-Feb-22 15:01N 50°44' E 000°45'2 3.5
2018-Feb-22 14:30N 50°45' E 000°48'2 3.5
2018-Feb-22 14:00N 50°46' E 000°50'2 3.6
2018-Feb-22 13:31N 50°48' E 000°51'1 1.6
2018-Feb-22 13:00N 50°48' E 000°50'2 3.9
2018-Feb-22 12:31N 50°47' E 000°47'2 3.9
2018-Feb-22 12:00N 50°46' E 000°45'2 3.9
2018-Feb-22 11:31N 50°45' E 000°42'1 2.1
2018-Feb-22 11:00N 50°45' E 000°44'2 5.0
2018-Feb-22 10:30N 50°46' E 000°47'3 5.1
2018-Feb-22 10:01N 50°48' E 000°50'1 2.3
2018-Feb-22 09:30N 50°49' E 000°50'1 2.8
2018-Feb-22 09:00N 50°49' E 000°48'1 2.9
2018-Feb-22 08:31N 50°47' E 000°47'2 3.1
2018-Feb-22 08:00N 50°46' E 000°45'2 3.3
2018-Feb-22 07:31N 50°46' E 000°43'2 3.7
2018-Feb-22 07:00N 50°45' E 000°40'2 3.9
2018-Feb-22 06:30N 50°44' E 000°37'2 3.8
2018-Feb-22 06:01N 50°43' E 000°35'2 3.7
2018-Feb-22 05:30N 50°43' E 000°32'2 3.7
2018-Feb-22 05:00N 50°41' E 000°30'2 3.6
2018-Feb-22 04:30N 50°41' E 000°27'2 3.5
2018-Feb-22 04:01N 50°40' E 000°25'2 3.7
2018-Feb-22 03:30N 50°39' E 000°22'2 4.2
2018-Feb-22 03:00N 50°38' E 000°19'1 2.0
2018-Feb-22 02:30N 50°37' E 000°20'2 4.0
2018-Feb-22 02:01N 50°38' E 000°23'2 3.9
2018-Feb-22 01:31N 50°38' E 000°26'2 3.5
2018-Feb-22 01:00N 50°39' E 000°29'2 3.8
2018-Feb-22 00:30N 50°39' E 000°32'1 2.0
2018-Feb-22 00:00N 50°40' E 000°31'0 0.3
2018-Feb-21 23:31N 50°40' E 000°31'2 3.7
2018-Feb-21 23:00N 50°40' E 000°34'2 3.5
2018-Feb-21 22:31N 50°42' E 000°36'2 3.4
2018-Feb-21 22:00N 50°41' E 000°33'2 3.8
2018-Feb-21 21:30N 50°40' E 000°31'1 2.8
2018-Feb-21 20:59N 50°39' E 000°29'2 4.1
2018-Feb-21 20:30N 50°40' E 000°32'2 4.5
2018-Feb-21 20:00N 50°41' E 000°35'1 1.3
2018-Feb-21 19:30N 50°41' E 000°34'2 3.8
2018-Feb-21 19:01N 50°40' E 000°32'2 3.1
2018-Feb-21 18:31N 50°40' E 000°30'1 2.6
2018-Feb-21 18:01N 50°40' E 000°31'2 3.8
2018-Feb-21 17:30N 50°41' E 000°34'1 2.8
2018-Feb-21 17:00N 50°42' E 000°36'1 1.3
2018-Feb-21 16:30N 50°41' E 000°36'1 3.0
2018-Feb-21 16:00N 50°41' E 000°34'2 3.7
2018-Feb-21 15:30N 50°40' E 000°31'1 2.5
2018-Feb-21 15:01N 50°39' E 000°29'2 3.5
2018-Feb-21 14:30N 50°40' E 000°32'2 3.9
2018-Feb-21 14:01N 50°41' E 000°34'1 2.4
2018-Feb-21 13:30N 50°41' E 000°36'2 4.1
2018-Feb-21 13:01N 50°41' E 000°33'2 3.6
2018-Feb-21 12:31N 50°40' E 000°31'1 2.9
2018-Feb-21 12:00N 50°40' E 000°29'2 3.2
2018-Feb-21 11:30N 50°40' E 000°26'2 3.3
2018-Feb-21 11:00N 50°40' E 000°24'2 3.1
2018-Feb-21 10:30N 50°40' E 000°21'1 2.6
2018-Feb-21 10:00N 50°40' E 000°19'1 2.0
2018-Feb-21 09:30N 50°40' E 000°18'1 1.4
2018-Feb-21 09:00N 50°40' E 000°16'1 1.5
2018-Feb-21 08:30N 50°40' E 000°15'1 1.2
2018-Feb-21 08:00N 50°40' E 000°14'0 1.0
2018-Feb-21 07:31N 50°39' E 000°14'0 0.9
2018-Feb-21 07:00N 50°39' E 000°13'0 0.1
2018-Feb-21 06:30N 50°39' E 000°13'2 4.2
2018-Feb-21 06:01N 50°39' E 000°16'2 4.2
2018-Feb-21 05:30N 50°40' E 000°20'2 4.1
2018-Feb-21 05:01N 50°40' E 000°23'2 4.1
2018-Feb-21 04:30N 50°40' E 000°26'2 3.8
2018-Feb-21 04:00N 50°40' E 000°29'2 3.3
2018-Feb-21 03:30N 50°40' E 000°32'2 3.5
2018-Feb-21 03:00N 50°41' E 000°34'1 2.4
2018-Feb-21 02:30N 50°42' E 000°36'1 1.2
2018-Feb-21 02:00N 50°41' E 000°35'2 3.9
2018-Feb-21 01:30N 50°40' E 000°32'1 2.8
2018-Feb-21 01:01N 50°39' E 000°32'2 3.6
2018-Feb-21 00:30N 50°40' E 000°34'2 3.3
2018-Feb-21 00:00N 50°41' E 000°36'2 3.4
2018-Feb-20 23:30N 50°42' E 000°39'2 3.4
2018-Feb-20 23:01N 50°42' E 000°41'2 3.8
2018-Feb-20 22:30N 50°43' E 000°44'2 3.7
2018-Feb-20 22:00N 50°43' E 000°47'2 3.8
2018-Feb-20 21:30N 50°44' E 000°50'2 3.9
2018-Feb-20 21:00N 50°45' E 000°53'2 4.3
2018-Feb-20 20:29N 50°46' E 000°56'2 4.0
2018-Feb-20 19:56N 50°47' E 000°59'10 3.8
2018-Feb-20 17:23N 50°52' E 001°12'11 5.3
2018-Feb-20 15:17N 50°50' E 000°54'1 5.3
2018-Feb-20 15:00N 50°49' E 000°52'2 4.0
2018-Feb-20 14:30N 50°49' E 000°49'2 3.1
2018-Feb-20 14:00N 50°49' E 000°51'1 2.4
2018-Feb-20 13:29N 50°48' E 000°51'2 3.8
2018-Feb-20 12:57N 50°47' E 000°48'2 3.8
2018-Feb-20 12:30N 50°46' E 000°46'2 3.8
2018-Feb-20 12:00N 50°45' E 000°43'2 3.9
2018-Feb-20 11:30N 50°44' E 000°41'1 2.8
2018-Feb-20 11:00N 50°44' E 000°43'2 3.7
2018-Feb-20 10:30N 50°45' E 000°45'2 4.9
2018-Feb-20 10:01N 50°46' E 000°49'3 5.3
2018-Feb-20 09:25N 50°49' E 000°51'0 1.1
2018-Feb-20 09:00N 50°49' E 000°50'1 1.8
2018-Feb-20 08:30N 50°49' E 000°49'1 1.8
2018-Feb-20 08:00N 50°50' E 000°48'1 1.4
2018-Feb-20 07:31N 50°50' E 000°47'1 1.4
2018-Feb-20 07:01N 50°49' E 000°46'1 1.7
2018-Feb-20 06:31N 50°48' E 000°46'1 1.7
2018-Feb-20 06:00N 50°47' E 000°46'1 1.9
2018-Feb-20 05:30N 50°47' E 000°45'1 2.0
2018-Feb-20 05:00N 50°47' E 000°43'1 2.0
2018-Feb-20 04:30N 50°46' E 000°42'1 2.0
2018-Feb-20 04:00N 50°45' E 000°41'1 1.9
2018-Feb-20 03:31N 50°45' E 000°41'1 2.5
2018-Feb-20 03:00N 50°43' E 000°41'1 2.1
2018-Feb-20 02:30N 50°43' E 000°42'2 3.9
2018-Feb-20 02:00N 50°43' E 000°45'2 4.0
2018-Feb-20 01:30N 50°44' E 000°48'2 3.9
2018-Feb-20 01:00N 50°44' E 000°51'2 3.6
2018-Feb-20 00:31N 50°45' E 000°53'2 3.8
2018-Feb-20 00:00N 50°46' E 000°56'15 4.5
2018-Feb-19 20:47N 50°54' E 001°15'1 3.9
2018-Feb-19 20:30N 50°55' E 001°16'2 4.0
2018-Feb-19 20:00N 50°57' E 001°17'3 5.5
2018-Feb-19 19:30N 50°59' E 001°20'611.3
2018-Feb-19 18:59N 51°03' E 001°26'510.1
2018-Feb-19 18:30N 51°07' E 001°32'4 8.9
2018-Feb-19 18:01N 51°09' E 001°37'4 8.1
2018-Feb-19 17:31N 51°12' E 001°42'4 7.7
2018-Feb-19 17:00N 51°15' E 001°46'4 7.5
2018-Feb-19 16:30N 51°19' E 001°49'3 6.9
2018-Feb-19 16:01N 51°22' E 001°52'3 6.9
2018-Feb-19 15:30N 51°24' E 001°55'3 6.6
2018-Feb-19 15:00N 51°27' E 001°59'4 7.9
2018-Feb-19 14:30N 51°26' E 002°05'3 6.4
2018-Feb-19 14:00N 51°23' E 002°07'4 8.8
2018-Feb-19 13:30N 51°21' E 002°13'4 7.0
2018-Feb-19 13:00N 51°20' E 002°19'4 8.7
2018-Feb-19 12:30N 51°22' E 002°25'510.6
2018-Feb-19 12:00N 51°23' E 002°34'611.5
2018-Feb-19 11:29N 51°23' E 002°43'511.1
2018-Feb-19 10:59N 51°22' E 002°52'510.9
2018-Feb-19 10:30N 51°22' E 003°00'510.0
2018-Feb-19 10:01N 51°22' E 003°08'3 5.7
2018-Feb-19 09:28N 51°20' E 003°12'0 0.0
2018-Feb-19 08:58N 51°20' E 003°12'0 0.0
2018-Feb-19 08:25N 51°20' E 003°12'0 0.0
2018-Feb-19 07:58N 51°20' E 003°12'0 0.0
2018-Feb-19 07:29N 51°20' E 003°12'  
2018-Feb-16 12:07N 51°20' E 003°12'0 0.0
2018-Feb-16 11:58N 51°20' E 003°12'0 0.0
2018-Feb-15 15:45N 51°20' E 003°12'0 0.0
2018-Feb-15 15:30N 51°20' E 003°12'0 0.0
2018-Feb-15 15:00N 51°20' E 003°12'0 0.0
2018-Feb-15 14:30N 51°20' E 003°12'0 0.0
2018-Feb-15 14:00N 51°20' E 003°12'0 0.0
2018-Feb-15 13:29N 51°20' E 003°12'0 0.0
2018-Feb-15 12:59N 51°20' E 003°12'0 0.0
2018-Feb-15 12:29N 51°20' E 003°12'0 0.0
2018-Feb-15 11:59N 51°20' E 003°12'0 0.0
2018-Feb-15 11:29N 51°20' E 003°12'0 0.0
2018-Feb-15 10:59N 51°20' E 003°12'  
Track history (hours):
 
Tides and Currents Weather Stations Pressure Air Temp Water Temp Dewpoint Dewpoint Depression Visibility Wind Speed Wind Dir Waves Ship Positions

Oceanographic research ship Belgica (Belgium)

Detailed information on ship capabilities available from University of Delaware's Ocean Information Center.

Last reported at 2018-Feb-23 08:13 UTC. Time now 2018-Feb-25 23:42 UTC.
Position N 51°20' E 003°12'.

Length 51 m; draft 4.7 m.

MMSI: 205218000.

Date/timePositionNaut miles runAvg speedWind from/ knotsBaromVisibWave heightAir tempDewpointWater temp
2018-Feb-23 08:13N 51°20' E 003°12'0 0.7
2018-Feb-23 08:00N 51°20' E 003°12'3 5.0
2018-Feb-23 07:30N 51°22' E 003°10'3 6.2
2018-Feb-23 07:00N 51°21' E 003°05'5 9.2
2018-Feb-23 06:30N 51°20' E 002°58'4 8.4
2018-Feb-23 06:00N 51°20' E 002°51'5 8.9
2018-Feb-23 05:27N 51°21' E 002°44'4 9.4
2018-Feb-23 05:00N 51°22' E 002°37'5 9.2
2018-Feb-23 04:29N 51°22' E 002°29'4 9.0
2018-Feb-23 04:00N 51°20' E 002°23'4 8.5
2018-Feb-23 03:30N 51°18' E 002°17'4 7.8
2018-Feb-23 03:00N 51°16' E 002°12'4 7.4
2018-Feb-23 02:30N 51°13' E 002°08'3 7.1
2018-Feb-23 02:00N 51°11' E 002°03'3 6.4
2018-Feb-23 01:31N 51°10' E 001°58'3 5.8
2018-Feb-23 01:00N 51°09' E 001°54'2 4.9
2018-Feb-23 00:31N 51°07' E 001°51'2 4.9
2018-Feb-23 00:00N 51°06' E 001°47'2 4.5
2018-Feb-22 23:30N 51°05' E 001°44'2 4.4
2018-Feb-22 23:00N 51°04' E 001°41'2 4.6
2018-Feb-22 22:30N 51°02' E 001°39'2 3.9
2018-Feb-22 22:00N 51°01' E 001°37'2 3.5
2018-Feb-22 21:30N 50°60' E 001°34'3 5.3
2018-Feb-22 20:59N 50°58' E 001°31'3 5.5
2018-Feb-22 20:30N 50°57' E 001°28'3 5.7
2018-Feb-22 20:00N 50°54' E 001°25'3 5.8
2018-Feb-22 19:30N 50°52' E 001°22'3 5.5
2018-Feb-22 19:00N 50°50' E 001°20'7 6.7
2018-Feb-22 17:52N 50°51' E 001°08'5 7.1
2018-Feb-22 17:14N 50°52' E 001°01'3 9.3
2018-Feb-22 16:55N 50°51' E 000°57'4 9.3
2018-Feb-22 16:30N 50°49' E 000°52'3 6.7
2018-Feb-22 16:01N 50°47' E 000°48'2 4.3
2018-Feb-22 15:31N 50°45' E 000°45'1 2.1
2018-Feb-22 15:01N 50°44' E 000°45'2 3.5
2018-Feb-22 14:30N 50°45' E 000°48'2 3.5
2018-Feb-22 14:00N 50°46' E 000°50'2 3.6
2018-Feb-22 13:31N 50°48' E 000°51'1 1.6
2018-Feb-22 13:00N 50°48' E 000°50'2 3.9
2018-Feb-22 12:31N 50°47' E 000°47'2 3.9
2018-Feb-22 12:00N 50°46' E 000°45'2 3.9
2018-Feb-22 11:31N 50°45' E 000°42'1 2.1
2018-Feb-22 11:00N 50°45' E 000°44'2 5.0
2018-Feb-22 10:30N 50°46' E 000°47'3 5.1
2018-Feb-22 10:01N 50°48' E 000°50'1 2.3
2018-Feb-22 09:30N 50°49' E 000°50'1 2.8
2018-Feb-22 09:00N 50°49' E 000°48'1 2.9
2018-Feb-22 08:31N 50°47' E 000°47'2 3.1
2018-Feb-22 08:00N 50°46' E 000°45'2 3.3
2018-Feb-22 07:31N 50°46' E 000°43'2 3.7
2018-Feb-22 07:00N 50°45' E 000°40'2 3.9
2018-Feb-22 06:30N 50°44' E 000°37'2 3.8
2018-Feb-22 06:01N 50°43' E 000°35'2 3.7
2018-Feb-22 05:30N 50°43' E 000°32'2 3.7
2018-Feb-22 05:00N 50°41' E 000°30'2 3.6
2018-Feb-22 04:30N 50°41' E 000°27'2 3.5
2018-Feb-22 04:01N 50°40' E 000°25'2 3.7
2018-Feb-22 03:30N 50°39' E 000°22'2 4.2
2018-Feb-22 03:00N 50°38' E 000°19'1 2.0
2018-Feb-22 02:30N 50°37' E 000°20'2 4.0
2018-Feb-22 02:01N 50°38' E 000°23'2 3.9
2018-Feb-22 01:31N 50°38' E 000°26'2 3.5
2018-Feb-22 01:00N 50°39' E 000°29'2 3.8
2018-Feb-22 00:30N 50°39' E 000°32'1 2.0
2018-Feb-22 00:00N 50°40' E 000°31'0 0.3
2018-Feb-21 23:31N 50°40' E 000°31'2 3.7
2018-Feb-21 23:00N 50°40' E 000°34'2 3.5
2018-Feb-21 22:31N 50°42' E 000°36'2 3.4
2018-Feb-21 22:00N 50°41' E 000°33'2 3.8
2018-Feb-21 21:30N 50°40' E 000°31'1 2.8
2018-Feb-21 20:59N 50°39' E 000°29'2 4.1
2018-Feb-21 20:30N 50°40' E 000°32'2 4.5
2018-Feb-21 20:00N 50°41' E 000°35'1 1.3
2018-Feb-21 19:30N 50°41' E 000°34'2 3.8
2018-Feb-21 19:01N 50°40' E 000°32'2 3.1
2018-Feb-21 18:31N 50°40' E 000°30'1 2.6
2018-Feb-21 18:01N 50°40' E 000°31'2 3.8
2018-Feb-21 17:30N 50°41' E 000°34'1 2.8
2018-Feb-21 17:00N 50°42' E 000°36'1 1.3
2018-Feb-21 16:30N 50°41' E 000°36'1 3.0
2018-Feb-21 16:00N 50°41' E 000°34'2 3.7
2018-Feb-21 15:30N 50°40' E 000°31'1 2.5
2018-Feb-21 15:01N 50°39' E 000°29'2 3.5
2018-Feb-21 14:30N 50°40' E 000°32'2 3.9
2018-Feb-21 14:01N 50°41' E 000°34'1 2.4
2018-Feb-21 13:30N 50°41' E 000°36'2 4.1
2018-Feb-21 13:01N 50°41' E 000°33'2 3.6
2018-Feb-21 12:31N 50°40' E 000°31'1 2.9
2018-Feb-21 12:00N 50°40' E 000°29'2 3.2
2018-Feb-21 11:30N 50°40' E 000°26'2 3.3
2018-Feb-21 11:00N 50°40' E 000°24'2 3.1
2018-Feb-21 10:30N 50°40' E 000°21'1 2.6
2018-Feb-21 10:00N 50°40' E 000°19'1 2.0
2018-Feb-21 09:30N 50°40' E 000°18'1 1.4
2018-Feb-21 09:00N 50°40' E 000°16'1 1.5
2018-Feb-21 08:30N 50°40' E 000°15'1 1.2
2018-Feb-21 08:00N 50°40' E 000°14'0 1.0
2018-Feb-21 07:31N 50°39' E 000°14'0 0.9
2018-Feb-21 07:00N 50°39' E 000°13'0 0.1
2018-Feb-21 06:30N 50°39' E 000°13'2 4.2
2018-Feb-21 06:01N 50°39' E 000°16'2 4.2
2018-Feb-21 05:30N 50°40' E 000°20'2 4.1
2018-Feb-21 05:01N 50°40' E 000°23'2 4.1
2018-Feb-21 04:30N 50°40' E 000°26'2 3.8
2018-Feb-21 04:00N 50°40' E 000°29'2 3.3
2018-Feb-21 03:30N 50°40' E 000°32'2 3.5
2018-Feb-21 03:00N 50°41' E 000°34'1 2.4
2018-Feb-21 02:30N 50°42' E 000°36'1 1.2
2018-Feb-21 02:00N 50°41' E 000°35'2 3.9
2018-Feb-21 01:30N 50°40' E 000°32'1 2.8
2018-Feb-21 01:01N 50°39' E 000°32'2 3.6
2018-Feb-21 00:30N 50°40' E 000°34'2 3.3
2018-Feb-21 00:00N 50°41' E 000°36'2 3.4
2018-Feb-20 23:30N 50°42' E 000°39'2 3.4
2018-Feb-20 23:01N 50°42' E 000°41'2 3.8
2018-Feb-20 22:30N 50°43' E 000°44'2 3.7
2018-Feb-20 22:00N 50°43' E 000°47'2 3.8
2018-Feb-20 21:30N 50°44' E 000°50'2 3.9
2018-Feb-20 21:00N 50°45' E 000°53'2 4.3
2018-Feb-20 20:29N 50°46' E 000°56'2 4.0
2018-Feb-20 19:56N 50°47' E 000°59'10 3.8
2018-Feb-20 17:23N 50°52' E 001°12'11 5.3
2018-Feb-20 15:17N 50°50' E 000°54'1 5.3
2018-Feb-20 15:00N 50°49' E 000°52'2 4.0
2018-Feb-20 14:30N 50°49' E 000°49'2 3.1
2018-Feb-20 14:00N 50°49' E 000°51'1 2.4
2018-Feb-20 13:29N 50°48' E 000°51'2 3.8
2018-Feb-20 12:57N 50°47' E 000°48'2 3.8
2018-Feb-20 12:30N 50°46' E 000°46'2 3.8
2018-Feb-20 12:00N 50°45' E 000°43'2 3.9
2018-Feb-20 11:30N 50°44' E 000°41'1 2.8
2018-Feb-20 11:00N 50°44' E 000°43'2 3.7
2018-Feb-20 10:30N 50°45' E 000°45'2 4.9
2018-Feb-20 10:01N 50°46' E 000°49'3 5.3
2018-Feb-20 09:25N 50°49' E 000°51'0 1.1
2018-Feb-20 09:00N 50°49' E 000°50'1 1.8
2018-Feb-20 08:30N 50°49' E 000°49'1 1.8
2018-Feb-20 08:00N 50°50' E 000°48'1 1.4
2018-Feb-20 07:31N 50°50' E 000°47'1 1.4
2018-Feb-20 07:01N 50°49' E 000°46'1 1.7
2018-Feb-20 06:31N 50°48' E 000°46'1 1.7
2018-Feb-20 06:00N 50°47' E 000°46'1 1.9
2018-Feb-20 05:30N 50°47' E 000°45'1 2.0
2018-Feb-20 05:00N 50°47' E 000°43'1 2.0
2018-Feb-20 04:30N 50°46' E 000°42'1 2.0
2018-Feb-20 04:00N 50°45' E 000°41'1 1.9
2018-Feb-20 03:31N 50°45' E 000°41'1 2.5
2018-Feb-20 03:00N 50°43' E 000°41'1 2.1
2018-Feb-20 02:30N 50°43' E 000°42'2 3.9
2018-Feb-20 02:00N 50°43' E 000°45'2 4.0
2018-Feb-20 01:30N 50°44' E 000°48'2 3.9
2018-Feb-20 01:00N 50°44' E 000°51'2 3.6
2018-Feb-20 00:31N 50°45' E 000°53'2 3.8
2018-Feb-20 00:00N 50°46' E 000°56'15 4.5
2018-Feb-19 20:47N 50°54' E 001°15'1 3.9
2018-Feb-19 20:30N 50°55' E 001°16'2 4.0
2018-Feb-19 20:00N 50°57' E 001°17'3 5.5
2018-Feb-19 19:30N 50°59' E 001°20'611.3
2018-Feb-19 18:59N 51°03' E 001°26'510.1
2018-Feb-19 18:30N 51°07' E 001°32'4 8.9
2018-Feb-19 18:01N 51°09' E 001°37'4 8.1
2018-Feb-19 17:31N 51°12' E 001°42'4 7.7
2018-Feb-19 17:00N 51°15' E 001°46'4 7.5
2018-Feb-19 16:30N 51°19' E 001°49'3 6.9
2018-Feb-19 16:01N 51°22' E 001°52'3 6.9
2018-Feb-19 15:30N 51°24' E 001°55'3 6.6
2018-Feb-19 15:00N 51°27' E 001°59'4 7.9
2018-Feb-19 14:30N 51°26' E 002°05'3 6.4
2018-Feb-19 14:00N 51°23' E 002°07'4 8.8
2018-Feb-19 13:30N 51°21' E 002°13'4 7.0
2018-Feb-19 13:00N 51°20' E 002°19'4 8.7
2018-Feb-19 12:30N 51°22' E 002°25'510.6
2018-Feb-19 12:00N 51°23' E 002°34'611.5
2018-Feb-19 11:29N 51°23' E 002°43'511.1
2018-Feb-19 10:59N 51°22' E 002°52'510.9
2018-Feb-19 10:30N 51°22' E 003°00'510.0
2018-Feb-19 10:01N 51°22' E 003°08'3 5.7
2018-Feb-19 09:28N 51°20' E 003°12'0 0.0
2018-Feb-19 08:58N 51°20' E 003°12'0 0.0
2018-Feb-19 08:25N 51°20' E 003°12'0 0.0
2018-Feb-19 07:58N 51°20' E 003°12'0 0.0
2018-Feb-19 07:29N 51°20' E 003°12'  
2018-Feb-16 12:07N 51°20' E 003°12'0 0.0
2018-Feb-16 11:58N 51°20' E 003°12'0 0.0
2018-Feb-15 15:45N 51°20' E 003°12'0 0.0
2018-Feb-15 15:30N 51°20' E 003°12'0 0.0
2018-Feb-15 15:00N 51°20' E 003°12'0 0.0
2018-Feb-15 14:30N 51°20' E 003°12'0 0.0
2018-Feb-15 14:00N 51°20' E 003°12'0 0.0
2018-Feb-15 13:29N 51°20' E 003°12'0 0.0
2018-Feb-15 12:59N 51°20' E 003°12'0 0.0
2018-Feb-15 12:29N 51°20' E 003°12'0 0.0
2018-Feb-15 11:59N 51°20' E 003°12'0 0.0
2018-Feb-15 11:29N 51°20' E 003°12'0 0.0
2018-Feb-15 10:59N 51°20' E 003°12'  

Dump ship's entire track history